createdAt,value
2023-09-22T00:00:15.773Z,99680.78
2023-09-22T00:02:48.524Z,99688.72
2023-09-22T00:05:20.571Z,99677.22
2023-09-22T00:07:52.571Z,99671.03
2023-09-22T00:10:24.908Z,99667.53
2023-09-22T00:12:57.114Z,99682.53
2023-09-22T00:15:29.149Z,99684.28
2023-09-22T00:18:01.925Z,99681.59
2023-09-22T00:20:34.621Z,99674.56
2023-09-22T00:23:06.769Z,99682.50
2023-09-22T00:25:38.838Z,99680.72
2023-09-22T00:28:11.185Z,99680.72
2023-09-22T00:30:43.398Z,99673.66
2023-09-22T00:33:15.405Z,99683.41
2023-09-22T00:35:47.355Z,99684.28
2023-09-22T00:38:19.358Z,99691.31
2023-09-22T00:40:51.270Z,99693.09
2023-09-22T00:43:23.502Z,99689.56
2023-09-22T00:45:55.692Z,99692.22
2023-09-22T00:48:35.687Z,99689.56
2023-09-22T00:51:08.126Z,99686.00
2023-09-22T00:53:40.719Z,99665.75
2023-09-22T00:56:13.390Z,99669.25
2023-09-22T00:58:45.461Z,99663.09
2023-09-22T01:01:19.768Z,99667.50
2023-09-22T01:03:54.962Z,99677.22
2023-09-22T01:06:27.152Z,99679.88
2023-09-22T01:08:59.157Z,99686.06
2023-09-22T01:11:32.842Z,99664.00
2023-09-22T01:14:04.936Z,99665.75
2023-09-22T01:16:37.265Z,99678.09
2023-09-22T01:19:15.828Z,99677.22
2023-09-22T01:21:49.487Z,99678.97
2023-09-22T01:24:21.693Z,99667.50
2023-09-22T01:26:53.618Z,99664.84
2023-09-22T01:29:25.728Z,99663.13
2023-09-22T01:31:57.887Z,99654.28
2023-09-22T01:34:30.038Z,99650.78
2023-09-22T01:37:08.547Z,99656.06
2023-09-22T01:39:42.060Z,99653.44
2023-09-22T01:42:14.009Z,99658.69
2023-09-22T01:44:45.933Z,99653.38
2023-09-22T01:47:17.967Z,99661.31
2023-09-22T01:49:49.913Z,99658.66
2023-09-22T01:52:21.819Z,99672.78
2023-09-22T01:54:53.801Z,99672.78
2023-09-22T01:57:25.886Z,99671.91
2023-09-22T01:59:57.812Z,99671.03
2023-09-22T02:02:29.959Z,99666.59
2023-09-22T02:05:02.339Z,99660.44
2023-09-22T02:07:34.875Z,99662.19
2023-09-22T02:10:10.998Z,99659.53
2023-09-22T02:12:45.440Z,99655.13
2023-09-22T02:15:18.039Z,99670.13
2023-09-22T02:17:50.111Z,99661.31
2023-09-22T02:20:24.959Z,99673.63
2023-09-22T02:22:57.785Z,99669.25
2023-09-22T02:25:29.891Z,99680.69
2023-09-22T02:28:01.919Z,99671.03
2023-09-22T02:30:36.281Z,99668.38
2023-09-22T02:33:09.683Z,99671.03
2023-09-22T02:35:42.864Z,99665.75
2023-09-22T02:38:15.050Z,99659.59
2023-09-22T02:40:47.078Z,99660.44
2023-09-22T02:43:19.028Z,99671.03
2023-09-22T02:45:52.687Z,99660.47
2023-09-22T02:48:24.841Z,99662.25
2023-09-22T02:50:57.090Z,99663.09
2023-09-22T02:53:29.046Z,99665.72
2023-09-22T02:56:06.457Z,99665.75
2023-09-22T02:58:38.420Z,99664.00
2023-09-22T03:01:10.680Z,99672.78
2023-09-22T03:03:46.436Z,99665.75
2023-09-22T03:06:20.487Z,99662.22
2023-09-22T03:08:52.424Z,99659.56
2023-09-22T03:11:24.542Z,99671.91
2023-09-22T03:13:56.768Z,99638.44
2023-09-22T03:16:28.863Z,99672.81
2023-09-22T03:19:01.073Z,99682.53
2023-09-22T03:21:33.156Z,99678.09
2023-09-22T03:24:06.169Z,99679.88
2023-09-22T03:26:38.212Z,99679.00
2023-09-22T03:29:10.176Z,99684.28
2023-09-22T03:31:42.386Z,99686.06
2023-09-22T03:34:14.357Z,99677.22
2023-09-22T03:36:46.351Z,99675.50
2023-09-22T03:39:22.123Z,99679.00
2023-09-22T03:41:55.633Z,99686.91
2023-09-22T03:44:27.536Z,99687.81
2023-09-22T03:46:59.529Z,99673.72
2023-09-22T03:49:31.723Z,99685.16
2023-09-22T03:52:05.487Z,99692.25
2023-09-22T03:54:37.391Z,99681.69
2023-09-22T03:57:09.356Z,99673.72
2023-09-22T03:59:41.457Z,99679.91
2023-09-22T04:02:13.792Z,99684.31
2023-09-22T04:04:45.707Z,99686.97
2023-09-22T04:07:17.649Z,99691.38
2023-09-22T04:09:49.963Z,99689.59
2023-09-22T04:12:21.957Z,99681.66
2023-09-22T04:14:53.878Z,99693.09
2023-09-22T04:17:25.920Z,99692.25
2023-09-22T04:19:59.300Z,99692.22
2023-09-22T04:22:31.527Z,99696.63
2023-09-22T04:25:10.121Z,99700.16
2023-09-22T04:27:45.284Z,99704.59
2023-09-22T04:30:17.881Z,99712.53
2023-09-22T04:32:52.784Z,99703.69
2023-09-22T04:35:25.668Z,99705.44
2023-09-22T04:37:57.793Z,99709.00
2023-09-22T04:40:36.049Z,99696.63
2023-09-22T04:43:13.124Z,99701.06
2023-09-22T04:45:47.192Z,99699.28
2023-09-22T04:48:20.127Z,99694.91
2023-09-22T04:50:58.162Z,99697.53
2023-09-22T04:53:30.149Z,99701.94
2023-09-22T04:56:07.292Z,99700.19
2023-09-22T04:58:39.422Z,99703.72
2023-09-22T05:01:11.582Z,99701.94
2023-09-22T05:03:44.341Z,99703.72
2023-09-22T05:06:16.500Z,99711.66
2023-09-22T05:08:48.456Z,99716.03
2023-09-22T05:11:21.505Z,99707.25
2023-09-22T05:13:54.978Z,99713.41
2023-09-22T05:16:27.033Z,99724.84
2023-09-22T05:19:01.105Z,99730.13
2023-09-22T05:21:33.324Z,99723.09
2023-09-22T05:24:05.806Z,99731.91
2023-09-22T05:26:37.765Z,99742.47
2023-09-22T05:29:09.898Z,99745.13
2023-09-22T05:31:41.973Z,99742.47
2023-09-22T05:34:14.191Z,99741.59
2023-09-22T05:36:47.740Z,99746.00
2023-09-22T05:39:19.880Z,99747.78
2023-09-22T05:41:51.835Z,99755.69
2023-09-22T05:44:23.873Z,99756.56
2023-09-22T05:46:55.942Z,99764.50
2023-09-22T05:49:29.284Z,99767.16
2023-09-22T05:52:01.718Z,99737.19
2023-09-22T05:54:33.780Z,99759.19
2023-09-22T05:57:05.803Z,99760.97
2023-09-22T05:59:38.307Z,99758.34
2023-09-22T06:02:10.291Z,99770.69
2023-09-22T06:04:42.317Z,99781.28
2023-09-22T06:07:15.583Z,99783.03
2023-09-22T06:09:47.646Z,99785.66
2023-09-22T06:12:19.584Z,99788.31
2023-09-22T06:14:51.533Z,99790.06
2023-09-22T06:17:23.444Z,99789.19
2023-09-22T06:19:55.653Z,99792.72
2023-09-22T06:22:27.590Z,99786.56
2023-09-22T06:24:59.770Z,99787.41
2023-09-22T06:27:33.717Z,99787.44
2023-09-22T06:30:12.090Z,99798.91
2023-09-22T06:32:47.082Z,99801.56
2023-09-22T06:35:19.360Z,99805.94
2023-09-22T06:37:51.324Z,99803.34
2023-09-22T06:40:23.276Z,99810.38
2023-09-22T06:42:56.679Z,99821.84
2023-09-22T06:45:30.389Z,99818.34
2023-09-22T06:48:04.794Z,99813.94
2023-09-22T06:50:37.556Z,99817.44
2023-09-22T06:53:09.613Z,99820.06
2023-09-22T06:55:42.251Z,99812.13
2023-09-22T06:58:14.281Z,99820.91
2023-09-22T07:00:47.699Z,99821.78
2023-09-22T07:03:19.650Z,99821.78
2023-09-22T07:05:51.729Z,99822.69
2023-09-22T07:08:23.665Z,99821.78
2023-09-22T07:11:05.327Z,99821.75
2023-09-22T07:13:38.810Z,99829.69
2023-09-22T07:16:12.230Z,99827.03
2023-09-22T07:18:44.445Z,99825.22
2023-09-22T07:21:16.620Z,99831.38
2023-09-22T07:23:48.704Z,99826.97
2023-09-22T07:26:20.961Z,99834.03
2023-09-22T07:28:53.515Z,99833.13
2023-09-22T07:31:31.897Z,99848.16
2023-09-22T07:34:04.566Z,99845.47
2023-09-22T07:36:36.731Z,99851.63
2023-09-22T07:39:10.946Z,99853.38
2023-09-22T07:41:44.298Z,99851.63
2023-09-22T07:44:19.779Z,99849.88
2023-09-22T07:46:51.922Z,99864.00
2023-09-22T07:49:24.658Z,99869.28
2023-09-22T07:51:56.856Z,99862.16
2023-09-22T07:54:29.934Z,99865.66
2023-09-22T07:57:03.458Z,99872.66
2023-09-22T07:59:35.441Z,99872.63
2023-09-22T08:02:07.970Z,99876.13
2023-09-22T08:04:41.143Z,99868.13
2023-09-22T08:07:14.890Z,99880.47
2023-09-22T08:09:46.950Z,99878.63
2023-09-22T08:12:18.949Z,99878.59
2023-09-22T08:14:57.623Z,99875.03
2023-09-22T08:17:30.456Z,99890.09
2023-09-22T08:20:07.421Z,99875.94
2023-09-22T08:22:41.646Z,99888.28
2023-09-22T08:25:13.685Z,99882.00
2023-09-22T08:27:45.947Z,99867.06
2023-09-22T08:30:18.174Z,99893.47
2023-09-22T08:32:50.319Z,99889.09
2023-09-22T08:35:22.848Z,99896.06
2023-09-22T08:37:55.531Z,99895.09
2023-09-22T08:40:27.787Z,99902.94
2023-09-22T08:43:03.884Z,99889.53
2023-09-22T08:45:37.640Z,99885.97
2023-09-22T08:48:10.604Z,99889.75
2023-09-22T08:50:42.700Z,99893.22
2023-09-22T08:53:15.701Z,99905.34
2023-09-22T08:55:51.453Z,99899.84
2023-09-22T08:58:23.468Z,99899.81
2023-09-22T09:00:55.557Z,99901.63
2023-09-22T09:03:28.688Z,99907.06
2023-09-22T09:06:09.642Z,99898.34
2023-09-22T09:08:41.725Z,99897.53
2023-09-22T09:11:13.751Z,99905.56
2023-09-22T09:13:46.033Z,99916.22
2023-09-22T09:16:32.104Z,99912.75
2023-09-22T09:19:16.579Z,99910.28
2023-09-22T09:22:14.118Z,99919.22
2023-09-22T09:24:46.606Z,99924.56
2023-09-22T09:27:19.931Z,99911.34
2023-09-22T09:29:52.005Z,99921.16
2023-09-22T09:32:28.938Z,99921.22
2023-09-22T09:35:01.766Z,99916.84
2023-09-22T09:37:33.892Z,99921.28
2023-09-22T09:40:11.743Z,99918.63
2023-09-22T09:42:49.489Z,99928.31
2023-09-22T09:45:25.280Z,99919.44
2023-09-22T09:48:01.496Z,99925.53
2023-09-22T09:50:36.496Z,99919.41
2023-09-22T09:53:23.563Z,99920.34
2023-09-22T09:56:04.570Z,99933.59
2023-09-22T09:58:38.651Z,99923.78
2023-09-22T10:01:10.990Z,99925.47
2023-09-22T10:03:44.334Z,99910.34
2023-09-22T10:06:20.288Z,99892.63
2023-09-22T10:08:52.217Z,99911.88
2023-09-22T10:11:24.520Z,99912.59
2023-09-22T10:13:56.989Z,99907.09
2023-09-22T10:16:31.134Z,99899.94
2023-09-22T10:19:04.234Z,99912.09
2023-09-22T10:21:46.371Z,99908.41
2023-09-22T10:24:29.902Z,99905.56
2023-09-22T10:27:12.932Z,99916.34
2023-09-22T10:29:52.603Z,99888.84
2023-09-22T10:32:28.353Z,99896.66
2023-09-22T10:35:10.322Z,99905.38
2023-09-22T10:38:01.466Z,99898.25
2023-09-22T10:40:33.575Z,99906.03
2023-09-22T10:43:05.898Z,99905.16
2023-09-22T10:45:38.689Z,99901.84
2023-09-22T10:48:12.282Z,99904.69
2023-09-22T10:50:50.475Z,99909.13
2023-09-22T10:53:22.588Z,99909.88
2023-09-22T10:55:59.037Z,99908.03
2023-09-22T10:58:31.008Z,99899.06
2023-09-22T11:01:06.262Z,99908.59
2023-09-22T11:03:52.320Z,99904.09
2023-09-22T11:06:24.453Z,99887.09
2023-09-22T11:08:56.569Z,99894.75
2023-09-22T11:11:29.443Z,99903.31
2023-09-22T11:14:02.493Z,99900.53
2023-09-22T11:16:34.615Z,99898.84
2023-09-22T11:19:09.974Z,99899.97
2023-09-22T11:21:42.676Z,99908.63
2023-09-22T11:24:14.907Z,99909.28
2023-09-22T11:26:47.116Z,99905.47
2023-09-22T11:29:19.680Z,99899.88
2023-09-22T11:31:52.911Z,99897.91
2023-09-22T11:34:25.901Z,99898.78
2023-09-22T11:36:58.498Z,99903.91
2023-09-22T11:39:32.265Z,99901.13
2023-09-22T11:42:05.309Z,99906.34
2023-09-22T11:44:37.388Z,99900.72
2023-09-22T11:47:23.150Z,99905.88
2023-09-22T11:49:55.239Z,99913.94
2023-09-22T11:52:31.589Z,99901.53
2023-09-22T11:55:03.820Z,99909.63
2023-09-22T11:57:35.824Z,99907.13
2023-09-22T12:00:10.548Z,99918.94
2023-09-22T12:02:42.670Z,99913.97
2023-09-22T12:05:14.703Z,99910.44
2023-09-22T12:07:46.666Z,99924.78
2023-09-22T12:10:19.098Z,99917.78
2023-09-22T12:12:51.093Z,99905.66
2023-09-22T12:15:23.067Z,99926.19
2023-09-22T12:17:55.005Z,99920.06
2023-09-22T12:20:27.134Z,99929.97
2023-09-22T12:22:59.217Z,99929.28
2023-09-22T12:25:31.587Z,99933.81
2023-09-22T12:28:03.817Z,99933.03
2023-09-22T12:30:36.372Z,99929.59
2023-09-22T12:33:08.396Z,99927.09
2023-09-22T12:35:40.509Z,99932.38
2023-09-22T12:38:12.471Z,99940.34
2023-09-22T12:40:44.894Z,99939.41
2023-09-22T12:43:16.964Z,99928.81
2023-09-22T12:45:48.952Z,99934.19
2023-09-22T12:48:20.970Z,99938.66
2023-09-22T12:50:57.312Z,99941.34
2023-09-22T12:53:29.590Z,99941.34
2023-09-22T12:56:01.699Z,99930.69
2023-09-22T12:58:35.665Z,99936.91
2023-09-22T13:01:12.850Z,99932.50
2023-09-22T13:03:46.934Z,99934.31
2023-09-22T13:06:19.195Z,99939.66
2023-09-22T13:08:51.241Z,99939.69
2023-09-22T13:11:23.293Z,99936.19
2023-09-22T13:13:55.385Z,99935.34
2023-09-22T13:16:27.813Z,99937.13
2023-09-22T13:19:00.081Z,99938.03
2023-09-22T13:21:32.028Z,99935.38
2023-09-22T13:24:07.631Z,99933.59
2023-09-22T13:26:39.592Z,99936.22
2023-09-22T13:29:11.669Z,99945.97
2023-09-22T13:31:43.985Z,99937.09
2023-09-22T13:34:16.676Z,99930.97
2023-09-22T13:36:48.688Z,99941.59
2023-09-22T13:39:20.651Z,99950.41
2023-09-22T13:41:52.615Z,99940.63
2023-09-22T13:44:25.177Z,99950.34
2023-09-22T13:46:57.206Z,99935.31
2023-09-22T13:49:31.604Z,99947.66
2023-09-22T13:52:03.952Z,99944.03
2023-09-22T13:54:36.053Z,99950.22
2023-09-22T13:57:08.142Z,99944.84
2023-09-22T13:59:40.148Z,99951.94
2023-09-22T14:02:12.154Z,99952.78
2023-09-22T14:04:44.294Z,99952.78
2023-09-22T14:07:16.368Z,99946.66
2023-09-22T14:09:48.469Z,99952.78
2023-09-22T14:12:20.433Z,99956.34
2023-09-22T14:14:53.274Z,99960.78
2023-09-22T14:17:25.558Z,99957.31
2023-09-22T14:19:57.740Z,99959.97
2023-09-22T14:22:30.228Z,99958.22
2023-09-22T14:25:04.514Z,99954.69
2023-09-22T14:27:37.482Z,99960.88
2023-09-22T14:30:12.664Z,99964.56
2023-09-22T14:32:44.697Z,99966.38
2023-09-22T14:35:16.780Z,99960.16
2023-09-22T14:37:48.843Z,99966.38
2023-09-22T14:40:21.154Z,99970.88
2023-09-22T14:42:54.873Z,99969.19
2023-09-22T14:45:27.464Z,99969.22
2023-09-22T14:48:00.334Z,99974.53
2023-09-22T14:50:33.484Z,99982.56
2023-09-22T14:53:05.630Z,99984.44
2023-09-22T14:55:37.609Z,99985.28
2023-09-22T14:58:09.910Z,99983.53
2023-09-22T15:00:41.917Z,99981.75
2023-09-22T15:03:13.953Z,99986.19
2023-09-22T15:05:47.442Z,99991.56
2023-09-22T15:08:19.417Z,99994.22
2023-09-22T15:10:53.004Z,99989.81
2023-09-22T15:13:25.480Z,99980.97
2023-09-22T15:15:58.161Z,99992.53
2023-09-22T15:18:30.371Z,99985.44
2023-09-22T15:21:05.601Z,99987.25
2023-09-22T15:23:42.708Z,99990.84
2023-09-22T15:26:14.878Z,99993.53
2023-09-22T15:28:48.125Z,99997.13
2023-09-22T15:31:20.663Z,99997.16
2023-09-22T15:33:52.709Z,99974.28
2023-09-22T15:36:24.877Z,100004.31
2023-09-22T15:38:59.332Z,100009.69
2023-09-22T15:41:35.877Z,100002.63
2023-09-22T15:44:07.920Z,99993.84
2023-09-22T15:46:40.065Z,99993.91
2023-09-22T15:49:12.237Z,99990.34
2023-09-22T15:51:44.501Z,99988.59
2023-09-22T15:54:16.483Z,100004.53
2023-09-22T15:56:48.543Z,100013.41
2023-09-22T15:59:20.526Z,100006.38
2023-09-22T16:01:52.790Z,100017.00
2023-09-22T16:04:24.908Z,100019.63
2023-09-22T16:06:57.238Z,100024.94
2023-09-22T16:09:29.504Z,100015.19
2023-09-22T16:12:01.507Z,100024.03
2023-09-22T16:14:33.704Z,100024.03
2023-09-22T16:17:05.846Z,100024.91
2023-09-22T16:19:37.961Z,100012.50
2023-09-22T16:22:10.784Z,100013.41
2023-09-22T16:24:42.750Z,100024.03
2023-09-22T16:27:14.716Z,100016.97
2023-09-22T16:29:46.645Z,100025.81
2023-09-22T16:32:19.741Z,100024.94
2023-09-22T16:34:52.073Z,100027.59
2023-09-22T16:37:24.286Z,100029.44
2023-09-22T16:39:56.406Z,100035.72
2023-09-22T16:42:30.327Z,100035.75
2023-09-22T16:45:02.420Z,100041.00
2023-09-22T16:47:34.477Z,100036.59
2023-09-22T16:50:07.329Z,100039.28
2023-09-22T16:52:40.026Z,100033.97
2023-09-22T16:55:12.178Z,100028.66
2023-09-22T16:57:46.229Z,100029.59
2023-09-22T17:00:18.565Z,100034.91
2023-09-22T17:02:53.852Z,100034.06
2023-09-22T17:05:25.948Z,100040.25
2023-09-22T17:07:57.930Z,100035.00
2023-09-22T17:10:30.072Z,100042.97
2023-09-22T17:13:02.122Z,100056.28
2023-09-22T17:15:34.160Z,100056.28
2023-09-22T17:18:06.284Z,100028.00
2023-09-22T17:20:38.225Z,100056.28
2023-09-22T17:23:10.197Z,100056.28
2023-09-22T17:25:52.215Z,100050.13
2023-09-22T17:28:24.477Z,100059.81
2023-09-22T17:31:04.660Z,100058.94
2023-09-22T17:33:36.671Z,100055.44
2023-09-22T17:36:09.332Z,100058.09
2023-09-22T17:38:41.441Z,100064.31
2023-09-22T17:41:15.321Z,100071.41
2023-09-22T17:43:47.888Z,100075.81
2023-09-22T17:46:20.263Z,100089.06
2023-09-22T17:48:52.943Z,100090.84
2023-09-22T17:51:24.932Z,100088.22
2023-09-22T17:53:57.280Z,100094.38
2023-09-22T17:56:29.562Z,100108.56
2023-09-22T17:59:01.521Z,100108.59
2023-09-22T18:01:34.382Z,100104.19
2023-09-22T18:04:06.489Z,100111.28
2023-09-22T18:06:42.523Z,100116.63
2023-09-22T18:09:19.449Z,100121.09
2023-09-22T18:11:52.221Z,100155.56
2023-09-22T18:14:24.627Z,100142.34
2023-09-22T18:16:58.372Z,100149.47
2023-09-22T18:19:30.554Z,100158.28
2023-09-22T18:22:03.959Z,100150.31
2023-09-22T18:24:35.935Z,100142.28
2023-09-22T18:27:07.877Z,100150.22
2023-09-22T18:29:41.523Z,100148.47
2023-09-22T18:32:19.761Z,100158.16
2023-09-22T18:34:51.917Z,100155.50
2023-09-22T18:37:23.999Z,100159.00
2023-09-22T18:39:56.300Z,100166.06
2023-09-22T18:42:28.724Z,100175.72
2023-09-22T18:45:00.710Z,100189.84
2023-09-22T18:47:32.693Z,100194.19
2023-09-22T18:50:05.464Z,100203.84
2023-09-22T18:52:37.485Z,100206.41
2023-09-22T18:55:09.862Z,100213.44
2023-09-22T18:57:42.293Z,100217.81
2023-09-22T19:00:14.814Z,100216.03
2023-09-22T19:02:47.033Z,100226.59
2023-09-22T19:05:20.015Z,100233.69
2023-09-22T19:07:52.098Z,100239.00
2023-09-22T19:10:24.279Z,100239.09
2023-09-22T19:12:56.313Z,100243.50
2023-09-22T19:15:28.299Z,100246.19
2023-09-22T19:18:00.460Z,100254.16
2023-09-22T19:20:32.483Z,100248.88
2023-09-22T19:23:05.613Z,100262.97
2023-09-22T19:25:41.180Z,100266.50
2023-09-22T19:28:14.549Z,100274.41
2023-09-22T19:30:46.630Z,100266.47
2023-09-22T19:33:22.054Z,100269.97
2023-09-22T19:35:54.121Z,100276.16
2023-09-22T19:38:27.128Z,100277.97
2023-09-22T19:40:59.249Z,100280.66
2023-09-22T19:43:31.268Z,100284.19
2023-09-22T19:46:04.784Z,100291.31
2023-09-22T19:48:36.739Z,100290.41
2023-09-22T19:51:12.832Z,100291.28
2023-09-22T19:53:44.997Z,100303.63
2023-09-22T19:56:17.365Z,100309.78
2023-09-22T19:58:49.466Z,100324.78
2023-09-22T20:01:21.443Z,100324.72
2023-09-22T20:03:55.970Z,100328.28
2023-09-22T20:06:28.093Z,100337.09
2023-09-22T20:09:00.108Z,100333.53
2023-09-22T20:11:33.974Z,100347.66
2023-09-22T20:14:06.255Z,100336.19
2023-09-22T20:16:38.797Z,100331.66
2023-09-22T20:19:11.778Z,100342.25
2023-09-22T20:21:43.774Z,100343.06
2023-09-22T20:24:15.682Z,100350.09
2023-09-22T20:26:47.631Z,100352.72
2023-09-22T20:29:19.640Z,100350.06
2023-09-22T20:31:51.753Z,100353.56
2023-09-22T20:34:23.833Z,100349.09
2023-09-22T20:36:59.173Z,100352.56
2023-09-22T20:39:32.261Z,100349.06
2023-09-22T20:42:04.347Z,100357.88
2023-09-22T20:44:36.279Z,100360.53
2023-09-22T20:47:11.250Z,100372.94
2023-09-22T20:49:44.834Z,100365.84
2023-09-22T20:52:17.004Z,100370.25
2023-09-22T20:54:50.720Z,100367.47
2023-09-22T20:57:24.918Z,100369.28
2023-09-22T21:00:00.274Z,100371.00
2023-09-22T21:02:33.155Z,100368.34
2023-09-22T21:05:07.334Z,100383.31
2023-09-22T21:07:39.669Z,100385.91
2023-09-22T21:10:11.748Z,100391.22
2023-09-22T21:12:45.589Z,100383.22
2023-09-22T21:15:17.503Z,100398.22
2023-09-22T21:17:49.864Z,100414.06
2023-09-22T21:20:24.434Z,100413.16
2023-09-22T21:22:58.650Z,100429.06
2023-09-22T21:25:30.652Z,100430.84
2023-09-22T21:28:03.048Z,100442.28
2023-09-22T21:30:34.998Z,100438.69
2023-09-22T21:33:07.071Z,100428.06
2023-09-22T21:35:39.802Z,100430.66
2023-09-22T21:38:12.625Z,100439.47
2023-09-22T21:40:45.362Z,100433.28
2023-09-22T21:43:18.049Z,100436.75
2023-09-22T21:45:50.111Z,100453.56
2023-09-22T21:48:22.137Z,100442.03
2023-09-22T21:50:54.170Z,100439.34
2023-09-22T21:53:29.491Z,100450.84
2023-09-22T21:56:02.000Z,100454.41
2023-09-22T21:58:34.164Z,100450.03
2023-09-22T22:01:07.098Z,100456.16
2023-09-22T22:03:39.657Z,100465.91
2023-09-22T22:06:13.446Z,100472.00
2023-09-22T22:08:48.444Z,100471.97
2023-09-22T22:11:21.118Z,100482.50
2023-09-22T22:13:53.110Z,100482.47
2023-09-22T22:16:25.550Z,100476.25
2023-09-22T22:18:57.632Z,100482.50
2023-09-22T22:21:29.896Z,100476.34
2023-09-22T22:24:06.557Z,100474.53
2023-09-22T22:26:38.596Z,100473.59
2023-09-22T22:29:13.169Z,100479.81
2023-09-22T22:31:48.937Z,100470.03
2023-09-22T22:34:21.323Z,100477.97
2023-09-22T22:36:53.324Z,100474.38
2023-09-22T22:39:25.487Z,100477.81
2023-09-22T22:41:59.673Z,100473.28
2023-09-22T22:44:31.942Z,100487.41
2023-09-22T22:47:06.517Z,100477.69
2023-09-22T22:49:40.698Z,100477.69
2023-09-22T22:52:13.410Z,100480.28
2023-09-22T22:54:49.374Z,100487.41
2023-09-22T22:57:23.233Z,100488.25
2023-09-22T22:59:55.622Z,100482.03
2023-09-22T23:02:28.843Z,100479.41
2023-09-22T23:05:00.949Z,100487.31
2023-09-22T23:07:35.495Z,100483.78
2023-09-22T23:10:08.796Z,100498.75
2023-09-22T23:12:44.169Z,100495.16
2023-09-22T23:15:17.553Z,100501.34
2023-09-22T23:17:49.822Z,100495.25
2023-09-22T23:20:36.466Z,100490.81
2023-09-22T23:23:08.553Z,100485.38
2023-09-22T23:25:40.911Z,100500.50
2023-09-22T23:28:13.300Z,100504.97
2023-09-22T23:30:45.233Z,100506.78
2023-09-22T23:33:17.896Z,100510.31
2023-09-22T23:35:50.661Z,100527.97
2023-09-22T23:38:23.235Z,100522.69
2023-09-22T23:40:56.467Z,100523.53
2023-09-22T23:43:28.867Z,100519.09
2023-09-22T23:46:02.328Z,100533.38
2023-09-22T23:48:35.021Z,100526.28
2023-09-22T23:51:09.210Z,100536.00
2023-09-22T23:53:42.893Z,100537.72
2023-09-22T23:56:16.293Z,100536.88
2023-09-22T23:58:49.474Z,100535.97
